createdAt,value
2019-04-30T00:01:48.595Z,29.90
2019-04-30T00:04:12.272Z,33.13
2019-04-30T00:06:15.593Z,30.70
2019-04-30T00:08:17.004Z,29.00
2019-04-30T00:10:18.249Z,32.87
2019-04-30T00:12:20.570Z,29.80
2019-04-30T00:14:21.805Z,34.33
2019-04-30T00:16:23.044Z,31.73
2019-04-30T00:18:25.486Z,33.83
2019-04-30T00:20:29.996Z,35.07
2019-04-30T00:22:33.489Z,35.33
2019-04-30T00:24:35.358Z,35.10
2019-04-30T00:26:39.913Z,35.17
2019-04-30T00:28:46.277Z,34.27
2019-04-30T00:30:43.952Z,34.47
2019-04-30T00:32:47.217Z,33.10
2019-04-30T00:34:48.598Z,34.50
2019-04-30T00:36:49.853Z,34.87
2019-04-30T00:38:51.274Z,35.00
2019-04-30T00:40:53.042Z,35.30
2019-04-30T00:42:55.881Z,36.90
2019-04-30T00:44:59.590Z,34.97
2019-04-30T00:47:04.291Z,34.67
2019-04-30T00:49:11.294Z,33.00
2019-04-30T00:51:13.997Z,34.83
2019-04-30T00:53:12.364Z,32.40
2019-04-30T00:55:15.030Z,35.80
2019-04-30T00:57:16.504Z,36.83
2019-04-30T00:59:18.036Z,35.60
2019-04-30T01:01:43.730Z,34.60
2019-04-30T01:03:49.555Z,34.43
2019-04-30T01:05:51.124Z,35.40
2019-04-30T01:07:52.769Z,35.63
2019-04-30T01:09:55.307Z,34.53
2019-04-30T01:11:56.605Z,29.27
2019-04-30T01:13:59.043Z,32.67
2019-04-30T01:16:00.773Z,31.87
2019-04-30T01:18:01.984Z,36.60
2019-04-30T01:20:03.562Z,28.67
2019-04-30T01:22:04.799Z,30.20
2019-04-30T01:24:06.029Z,32.03
2019-04-30T01:26:08.761Z,28.60
2019-04-30T01:28:10.827Z,29.63
2019-04-30T01:30:13.414Z,31.30
2019-04-30T01:32:17.490Z,25.83
2019-04-30T01:34:19.589Z,28.87
2019-04-30T01:36:21.070Z,27.93
2019-04-30T01:38:22.580Z,27.90
2019-04-30T01:40:24.166Z,30.33
2019-04-30T01:42:25.719Z,29.33
2019-04-30T01:44:27.223Z,27.77
2019-04-30T01:46:29.197Z,26.53
2019-04-30T01:48:30.613Z,25.60
2019-04-30T01:50:33.743Z,28.90
2019-04-30T01:52:53.032Z,26.73
2019-04-30T01:54:54.484Z,27.00
2019-04-30T01:57:19.308Z,28.40
2019-04-30T01:59:23.957Z,31.43
2019-04-30T02:01:26.613Z,26.23
2019-04-30T02:03:29.181Z,27.07
2019-04-30T02:05:30.664Z,28.30
2019-04-30T02:07:31.916Z,25.90
2019-04-30T02:09:33.137Z,29.27
2019-04-30T02:11:34.704Z,28.73
2019-04-30T02:13:35.936Z,28.27
2019-04-30T02:15:38.979Z,26.63
2019-04-30T02:17:40.602Z,21.60
2019-04-30T02:19:53.903Z,23.90
2019-04-30T02:21:44.955Z,24.47
2019-04-30T02:23:46.316Z,22.57
2019-04-30T02:25:48.951Z,24.87
2019-04-30T02:27:50.472Z,26.23
2019-04-30T02:29:51.684Z,24.40
2019-04-30T02:31:53.181Z,22.40
2019-04-30T02:34:00.919Z,23.73
2019-04-30T02:36:40.049Z,24.93
2019-04-30T02:38:43.692Z,19.33
2019-04-30T02:40:44.928Z,22.33
2019-04-30T02:42:46.132Z,24.77
2019-04-30T02:44:50.199Z,24.37
2019-04-30T02:46:51.392Z,22.40
2019-04-30T02:48:52.885Z,20.80
2019-04-30T02:50:54.463Z,20.30
2019-04-30T02:52:55.673Z,21.40
2019-04-30T02:54:59.221Z,21.10
2019-04-30T02:57:12.985Z,20.70
2019-04-30T02:59:14.196Z,20.90
2019-04-30T03:01:15.418Z,19.33
2019-04-30T03:03:16.949Z,21.47
2019-04-30T03:05:20.160Z,24.20
2019-04-30T03:07:21.310Z,20.03
2019-04-30T03:09:22.540Z,18.70
2019-04-30T03:11:24.033Z,19.07
2019-04-30T03:13:25.262Z,18.73
2019-04-30T03:15:26.490Z,18.17
2019-04-30T03:17:50.579Z,18.47
2019-04-30T03:19:59.833Z,16.80
2019-04-30T03:22:10.034Z,18.40
2019-04-30T03:24:11.349Z,15.43
2019-04-30T03:26:13.103Z,16.97
2019-04-30T03:28:14.433Z,16.83
2019-04-30T03:30:16.005Z,17.77
2019-04-30T03:32:21.539Z,18.30
2019-04-30T03:34:25.947Z,16.50
2019-04-30T03:36:23.848Z,17.30
2019-04-30T03:38:25.088Z,17.73
2019-04-30T03:40:26.313Z,18.07
2019-04-30T03:42:29.449Z,17.57
2019-04-30T03:44:32.475Z,17.50
2019-04-30T03:46:34.096Z,19.23
2019-04-30T03:48:35.653Z,19.63
2019-04-30T03:50:52.492Z,19.43
2019-04-30T03:52:40.325Z,18.43
2019-04-30T03:54:41.562Z,18.10
2019-04-30T03:56:43.184Z,17.03
2019-04-30T03:58:44.661Z,17.00
2019-04-30T04:00:53.424Z,18.07
2019-04-30T04:02:54.637Z,17.33
2019-04-30T04:05:15.566Z,18.93
2019-04-30T04:07:36.078Z,17.57
2019-04-30T04:09:42.776Z,18.70
2019-04-30T04:11:44.646Z,17.60
2019-04-30T04:13:46.197Z,18.47
2019-04-30T04:15:49.910Z,15.93
2019-04-30T04:17:50.899Z,17.90
2019-04-30T04:19:52.124Z,16.27
2019-04-30T04:21:53.359Z,15.07
2019-04-30T04:23:54.564Z,14.77
2019-04-30T04:25:55.804Z,14.03
2019-04-30T04:27:57.025Z,13.83
2019-04-30T04:30:01.041Z,18.03
2019-04-30T04:32:01.749Z,14.50
2019-04-30T04:34:03.310Z,13.10
2019-04-30T04:36:04.593Z,13.73
2019-04-30T04:38:05.808Z,14.20
2019-04-30T04:40:09.236Z,11.47
2019-04-30T04:42:10.339Z,14.20
2019-04-30T04:44:13.135Z,14.30
2019-04-30T04:46:14.917Z,14.57
2019-04-30T04:48:16.133Z,15.50
2019-04-30T04:50:19.877Z,16.70
2019-04-30T04:52:21.976Z,15.40
2019-04-30T04:54:23.875Z,15.27
2019-04-30T04:56:25.098Z,15.87
2019-04-30T04:58:26.954Z,16.27
2019-04-30T05:00:29.362Z,18.87
2019-04-30T05:02:49.563Z,16.20
2019-04-30T05:04:51.321Z,14.93
2019-04-30T05:06:52.836Z,15.67
2019-04-30T05:08:54.055Z,15.03
2019-04-30T05:10:55.935Z,16.20
2019-04-30T05:12:59.094Z,17.20
2019-04-30T05:15:00.544Z,18.33
2019-04-30T05:17:01.780Z,19.93
2019-04-30T05:19:03.296Z,22.87
2019-04-30T05:21:04.524Z,22.00
2019-04-30T05:23:05.760Z,22.23
2019-04-30T05:25:08.658Z,23.20
2019-04-30T05:27:10.460Z,27.93
2019-04-30T05:29:11.704Z,27.53
2019-04-30T05:31:12.920Z,32.63
2019-04-30T05:33:14.146Z,26.47
2019-04-30T05:35:15.385Z,30.87
2019-04-30T05:37:18.388Z,35.10
2019-04-30T05:39:20.092Z,41.97
2019-04-30T05:41:21.305Z,40.83
2019-04-30T05:43:22.542Z,37.17
2019-04-30T05:45:23.783Z,38.20
2019-04-30T05:47:25.001Z,37.87
2019-04-30T05:49:26.211Z,37.50
2019-04-30T05:51:28.910Z,40.67
2019-04-30T05:53:30.637Z,40.73
2019-04-30T05:55:31.852Z,43.80
2019-04-30T05:57:33.080Z,44.37
2019-04-30T05:59:34.672Z,44.43
2019-04-30T06:01:35.884Z,43.40
2019-04-30T06:03:38.577Z,42.60
2019-04-30T06:05:40.043Z,40.00
2019-04-30T06:07:41.252Z,43.27
2019-04-30T06:09:48.700Z,41.20
2019-04-30T06:12:21.836Z,40.10
2019-04-30T06:14:31.728Z,39.60
2019-04-30T06:16:32.944Z,43.07
2019-04-30T06:18:34.175Z,39.50
2019-04-30T06:20:35.388Z,39.17
2019-04-30T06:22:38.554Z,39.07
2019-04-30T06:24:39.964Z,39.87
2019-04-30T06:26:41.192Z,36.97
2019-04-30T06:28:42.750Z,43.60
2019-04-30T06:30:44.261Z,45.20
2019-04-30T06:32:45.508Z,38.87
2019-04-30T06:34:47.036Z,38.77
2019-04-30T06:36:53.379Z,41.53
2019-04-30T06:38:51.768Z,43.40
2019-04-30T06:40:52.985Z,44.23
2019-04-30T06:42:54.227Z,36.57
2019-04-30T06:44:55.765Z,35.30
2019-04-30T06:46:58.796Z,35.83
2019-04-30T06:49:00.564Z,35.93
2019-04-30T06:51:01.796Z,36.63
2019-04-30T06:53:03.014Z,36.83
2019-04-30T06:55:04.749Z,37.60
2019-04-30T06:57:05.981Z,31.67
2019-04-30T06:59:09.159Z,29.53
2019-04-30T07:01:10.624Z,32.40
2019-04-30T07:03:11.833Z,33.23
2019-04-30T07:05:13.072Z,32.07
2019-04-30T07:07:19.244Z,36.17
2019-04-30T07:09:49.887Z,35.33
2019-04-30T07:11:41.768Z,33.87
2019-04-30T07:13:46.307Z,36.00
2019-04-30T07:15:48.999Z,29.90
2019-04-30T07:17:50.358Z,31.50
2019-04-30T07:19:56.548Z,32.00
2019-04-30T07:21:54.805Z,33.70
2019-04-30T07:23:56.016Z,33.27
2019-04-30T07:25:58.988Z,29.10
2019-04-30T07:28:00.366Z,31.97
2019-04-30T07:30:01.742Z,33.43
2019-04-30T07:32:03.193Z,33.27
2019-04-30T07:34:04.689Z,32.57
2019-04-30T07:36:05.921Z,36.20
2019-04-30T07:38:09.210Z,39.57
2019-04-30T07:40:10.257Z,38.40
2019-04-30T07:42:11.804Z,39.63
2019-04-30T07:44:29.968Z,40.60
2019-04-30T07:46:16.536Z,36.80
2019-04-30T07:48:20.996Z,36.67
2019-04-30T07:50:22.317Z,34.90
2019-04-30T07:52:24.975Z,38.43
2019-04-30T07:54:27.172Z,36.70
2019-04-30T07:56:33.401Z,36.80
2019-04-30T07:58:31.536Z,34.47
2019-04-30T08:00:33.101Z,32.10
2019-04-30T08:02:43.060Z,34.83
2019-04-30T08:04:46.937Z,33.50
2019-04-30T08:06:49.909Z,29.07
2019-04-30T08:08:54.728Z,35.17
2019-04-30T08:10:54.732Z,35.30
2019-04-30T08:12:56.634Z,32.27
2019-04-30T08:14:59.610Z,32.17
2019-04-30T08:17:00.940Z,36.30
2019-04-30T08:19:02.161Z,31.10
2019-04-30T08:21:03.398Z,34.33
2019-04-30T08:23:15.529Z,32.43
2019-04-30T08:25:09.724Z,34.70
2019-04-30T08:27:11.436Z,33.00
2019-04-30T08:29:12.657Z,33.00
2019-04-30T08:31:15.618Z,34.20
2019-04-30T08:33:19.227Z,34.80
2019-04-30T08:35:20.438Z,32.33
2019-04-30T08:37:22.020Z,35.67
2019-04-30T08:39:23.233Z,34.53
2019-04-30T08:41:24.468Z,33.23
2019-04-30T08:43:25.688Z,31.60
2019-04-30T08:45:27.191Z,37.43
2019-04-30T08:47:29.097Z,35.20
2019-04-30T08:49:31.088Z,36.23
2019-04-30T08:51:32.868Z,35.90
2019-04-30T08:53:34.406Z,36.90
2019-04-30T08:55:35.924Z,33.87
2019-04-30T08:57:37.142Z,35.10
2019-04-30T08:59:39.463Z,34.10
2019-04-30T09:01:40.782Z,38.13
2019-04-30T09:03:42.025Z,38.73
2019-04-30T09:06:01.678Z,33.90
2019-04-30T09:08:03.833Z,35.13
2019-04-30T09:10:05.106Z,38.20
2019-04-30T09:12:06.376Z,36.83
2019-04-30T09:14:08.564Z,34.47
2019-04-30T09:16:09.933Z,33.33
2019-04-30T09:18:12.543Z,35.17
2019-04-30T09:20:14.476Z,42.30
2019-04-30T09:22:15.992Z,37.67
2019-04-30T09:24:19.041Z,39.47
2019-04-30T09:26:20.583Z,35.17
2019-04-30T09:28:22.210Z,34.97
2019-04-30T09:30:23.421Z,39.03
2019-04-30T09:32:24.640Z,35.90
2019-04-30T09:34:26.210Z,37.53
2019-04-30T09:36:29.220Z,41.10
2019-04-30T09:38:30.756Z,38.70
2019-04-30T09:40:32.635Z,42.47
2019-04-30T09:42:34.015Z,41.60
2019-04-30T09:44:35.305Z,38.67
2019-04-30T09:46:36.617Z,40.53
2019-04-30T09:48:38.612Z,41.93
2019-04-30T09:50:40.637Z,40.17
2019-04-30T09:52:42.426Z,40.53
2019-04-30T09:54:44.321Z,43.50
2019-04-30T09:56:45.588Z,40.23
2019-04-30T09:58:49.157Z,39.83
2019-04-30T10:00:50.472Z,44.50
2019-04-30T10:02:51.812Z,40.60
2019-04-30T10:04:53.255Z,46.87
2019-04-30T10:06:55.233Z,43.93
2019-04-30T10:08:56.462Z,39.30
2019-04-30T10:11:17.340Z,36.90
2019-04-30T10:13:18.578Z,42.40
2019-04-30T10:15:46.298Z,41.60
2019-04-30T10:17:47.792Z,46.97
2019-04-30T10:19:49.350Z,43.00
2019-04-30T10:21:50.585Z,42.20
2019-04-30T10:23:52.164Z,48.10
2019-04-30T10:25:53.692Z,47.13
2019-04-30T10:27:54.975Z,43.13
2019-04-30T10:29:56.456Z,47.57
2019-04-30T10:31:58.773Z,44.70
2019-04-30T10:34:00.221Z,39.87
2019-04-30T10:36:01.432Z,41.73
2019-04-30T10:38:02.868Z,42.67
2019-04-30T10:40:04.164Z,44.00
2019-04-30T10:42:05.676Z,44.23
2019-04-30T10:44:08.770Z,44.43
2019-04-30T10:46:10.076Z,41.43
2019-04-30T10:48:11.376Z,37.43
2019-04-30T10:50:12.584Z,34.00
2019-04-30T10:52:14.529Z,34.90
2019-04-30T10:54:24.133Z,38.60
2019-04-30T10:56:19.365Z,35.30
2019-04-30T10:58:20.700Z,31.37
2019-04-30T11:00:34.313Z,34.67
2019-04-30T11:02:35.526Z,32.80
2019-04-30T11:04:36.758Z,31.57
2019-04-30T11:06:38.621Z,31.13
2019-04-30T11:08:39.857Z,25.90
2019-04-30T11:10:41.095Z,28.07
2019-04-30T11:12:42.624Z,26.07
2019-04-30T11:14:44.540Z,25.63
2019-04-30T11:16:45.799Z,27.23
2019-04-30T11:18:47.433Z,26.50
2019-04-30T11:20:49.763Z,22.47
2019-04-30T11:22:53.090Z,25.47
2019-04-30T11:25:00.144Z,26.70
2019-04-30T11:26:59.858Z,24.20
2019-04-30T11:29:01.432Z,26.70
2019-04-30T11:31:34.964Z,26.50
2019-04-30T11:33:36.943Z,30.67
2019-04-30T11:35:39.483Z,19.97
2019-04-30T11:37:41.360Z,21.07
2019-04-30T11:39:42.600Z,19.80
2019-04-30T11:41:43.932Z,19.73
2019-04-30T11:43:45.420Z,25.07
2019-04-30T11:46:18.772Z,25.07
2019-04-30T11:48:20.044Z,24.30
2019-04-30T11:50:21.644Z,25.13
2019-04-30T11:52:22.983Z,25.03
2019-04-30T11:54:24.197Z,26.80
2019-04-30T11:56:25.433Z,34.23
2019-04-30T11:58:30.224Z,25.47
2019-04-30T12:00:34.524Z,26.63
2019-04-30T12:02:39.893Z,22.40
2019-04-30T12:04:41.481Z,18.73
2019-04-30T12:06:43.051Z,18.37
2019-04-30T12:09:03.917Z,17.37
2019-04-30T12:11:20.428Z,21.30
2019-04-30T12:13:25.626Z,18.27
2019-04-30T12:15:26.888Z,25.83
2019-04-30T12:17:28.616Z,24.87
2019-04-30T12:19:30.129Z,23.63
2019-04-30T12:21:31.356Z,21.17
2019-04-30T12:23:32.888Z,19.93
2019-04-30T12:25:34.121Z,23.10
2019-04-30T12:27:35.392Z,18.63
2019-04-30T12:29:36.637Z,21.50
2019-04-30T12:31:37.885Z,18.27
2019-04-30T12:33:39.407Z,19.20
2019-04-30T12:35:40.649Z,19.03
2019-04-30T12:37:41.864Z,18.93
2019-04-30T12:39:43.480Z,19.60
2019-04-30T12:41:45.288Z,20.27
2019-04-30T12:43:46.513Z,24.03
2019-04-30T12:46:01.618Z,22.60
2019-04-30T12:47:55.041Z,17.90
2019-04-30T12:50:02.732Z,17.03
2019-04-30T12:52:19.590Z,15.87
2019-04-30T12:54:43.867Z,18.17
2019-04-30T12:57:12.688Z,17.60
2019-04-30T12:59:14.030Z,20.07
2019-04-30T13:01:15.344Z,17.93
2019-04-30T13:03:16.601Z,16.67
2019-04-30T13:05:18.844Z,17.03
2019-04-30T13:07:21.456Z,17.73
2019-04-30T13:09:23.406Z,16.30
2019-04-30T13:11:25.538Z,17.50
2019-04-30T13:13:31.441Z,16.03
2019-04-30T13:15:30.905Z,17.27
2019-04-30T13:17:32.147Z,15.97
2019-04-30T13:19:33.372Z,18.43
2019-04-30T13:21:34.612Z,15.20
2019-04-30T13:23:36.180Z,16.83
2019-04-30T13:25:48.992Z,14.67
2019-04-30T13:27:44.245Z,19.07
2019-04-30T13:30:00.142Z,15.23
2019-04-30T13:32:01.385Z,17.30
2019-04-30T13:34:22.706Z,16.13
2019-04-30T13:36:23.913Z,20.40
2019-04-30T13:38:31.318Z,18.70
2019-04-30T13:40:41.571Z,19.50
2019-04-30T13:42:46.004Z,17.13
2019-04-30T13:44:49.259Z,19.57
2019-04-30T13:46:50.636Z,18.73
2019-04-30T13:48:51.872Z,17.53
2019-04-30T13:50:53.349Z,14.53
2019-04-30T13:52:54.585Z,15.60
2019-04-30T13:54:55.828Z,17.33
2019-04-30T13:56:59.033Z,16.30
2019-04-30T13:59:00.192Z,16.30
2019-04-30T14:01:01.539Z,17.47
2019-04-30T14:03:13.376Z,14.73
2019-04-30T14:05:16.178Z,15.27
2019-04-30T14:07:42.685Z,19.63
2019-04-30T14:09:44.519Z,16.50
2019-04-30T14:11:45.727Z,16.63
2019-04-30T14:13:47.105Z,18.53
2019-04-30T14:15:48.325Z,16.33
2019-04-30T14:17:49.569Z,18.33
2019-04-30T14:19:50.796Z,15.03
2019-04-30T14:21:52.024Z,17.07
2019-04-30T14:23:53.265Z,15.27
2019-04-30T14:25:56.726Z,16.47
2019-04-30T14:27:59.268Z,15.47
2019-04-30T14:30:00.764Z,15.63
2019-04-30T14:32:02.052Z,15.07
2019-04-30T14:34:03.280Z,14.40
2019-04-30T14:36:04.840Z,15.70
2019-04-30T14:38:06.415Z,14.93
2019-04-30T14:40:12.129Z,15.17
2019-04-30T14:42:12.397Z,14.40
2019-04-30T14:44:18.571Z,16.30
2019-04-30T14:46:40.089Z,13.87
2019-04-30T14:48:47.204Z,16.70
2019-04-30T14:50:49.697Z,15.87
2019-04-30T14:52:58.757Z,14.53
2019-04-30T14:55:13.601Z,13.67
2019-04-30T14:57:25.080Z,13.47
2019-04-30T15:00:04.254Z,12.40
2019-04-30T15:02:25.157Z,15.00
2019-04-30T15:04:26.360Z,17.13
2019-04-30T15:06:27.605Z,13.90
2019-04-30T15:08:29.317Z,15.57
2019-04-30T15:10:30.664Z,16.80
2019-04-30T15:12:31.899Z,12.77
2019-04-30T15:14:33.387Z,12.53
2019-04-30T15:16:34.605Z,12.17
2019-04-30T15:18:35.845Z,14.00
2019-04-30T15:20:37.061Z,16.10
2019-04-30T15:22:40.816Z,15.67
2019-04-30T15:24:42.070Z,14.57
2019-04-30T15:26:43.304Z,15.83
2019-04-30T15:28:44.513Z,13.17
2019-04-30T15:30:45.836Z,15.70
2019-04-30T15:32:49.470Z,14.27
2019-04-30T15:34:51.012Z,16.40
2019-04-30T15:36:52.257Z,15.07
2019-04-30T15:39:19.019Z,14.67
2019-04-30T15:41:20.844Z,15.20
2019-04-30T15:43:22.092Z,15.57
2019-04-30T15:45:23.956Z,14.80
2019-04-30T15:47:25.521Z,12.80
2019-04-30T15:49:26.777Z,13.97
2019-04-30T15:51:28.011Z,15.57
2019-04-30T15:53:29.261Z,13.43
2019-04-30T15:55:30.484Z,14.30
2019-04-30T15:57:31.704Z,13.57
2019-04-30T15:59:52.603Z,13.20
2019-04-30T16:01:56.784Z,12.93
2019-04-30T16:03:58.193Z,14.80
2019-04-30T16:05:59.737Z,16.30
2019-04-30T16:08:08.872Z,16.40
2019-04-30T16:10:35.953Z,13.67
2019-04-30T16:12:48.613Z,14.87
2019-04-30T16:14:50.063Z,15.27
2019-04-30T16:16:57.696Z,14.40
2019-04-30T16:18:58.936Z,14.87
2019-04-30T16:21:00.168Z,16.37
2019-04-30T16:23:01.384Z,13.77
2019-04-30T16:25:02.652Z,13.90
2019-04-30T16:27:03.881Z,13.83
2019-04-30T16:29:05.116Z,13.50
2019-04-30T16:31:06.443Z,14.20
2019-04-30T16:33:09.450Z,16.10
2019-04-30T16:35:10.813Z,13.57
2019-04-30T16:37:12.035Z,16.30
2019-04-30T16:39:13.292Z,12.30
2019-04-30T16:41:14.556Z,14.70
2019-04-30T16:43:15.784Z,14.67
2019-04-30T16:45:18.898Z,13.10
2019-04-30T16:47:20.417Z,11.67
2019-04-30T16:49:21.644Z,13.17
2019-04-30T16:51:22.857Z,13.63
2019-04-30T16:53:24.080Z,13.60
2019-04-30T16:55:25.325Z,14.23
2019-04-30T16:57:30.170Z,14.80
2019-04-30T16:59:35.253Z,16.87
2019-04-30T17:01:36.476Z,17.83
2019-04-30T17:03:41.312Z,14.87
2019-04-30T17:05:46.705Z,14.10
2019-04-30T17:08:01.755Z,14.47
2019-04-30T17:10:18.726Z,13.80
2019-04-30T17:12:29.407Z,12.73
2019-04-30T17:14:31.241Z,14.20
2019-04-30T17:16:32.480Z,13.83
2019-04-30T17:18:33.708Z,14.13
2019-04-30T17:20:34.937Z,12.00
2019-04-30T17:22:36.182Z,13.40
2019-04-30T17:24:39.396Z,15.17
2019-04-30T17:26:40.632Z,13.97
2019-04-30T17:28:41.877Z,12.13
2019-04-30T17:30:43.425Z,12.63
2019-04-30T17:32:44.972Z,19.57
2019-04-30T17:34:46.208Z,12.73
2019-04-30T17:36:49.117Z,14.90
2019-04-30T17:38:50.568Z,15.33
2019-04-30T17:40:52.200Z,14.23
2019-04-30T17:42:53.733Z,12.60
2019-04-30T17:44:58.735Z,14.37
2019-04-30T17:47:00.095Z,18.03
2019-04-30T17:49:01.805Z,17.17
2019-04-30T17:51:03.330Z,15.57
2019-04-30T17:53:04.652Z,15.60
2019-04-30T17:55:05.989Z,14.00
2019-04-30T17:57:10.480Z,15.57
2019-04-30T17:59:10.340Z,16.10
2019-04-30T18:01:11.676Z,13.10
2019-04-30T18:03:12.912Z,17.63
2019-04-30T18:05:14.121Z,15.57
2019-04-30T18:07:15.448Z,15.30
2019-04-30T18:09:19.096Z,16.40
2019-04-30T18:11:20.846Z,16.67
2019-04-30T18:13:22.112Z,14.73
2019-04-30T18:15:25.636Z,15.93
2019-04-30T18:17:26.862Z,20.03
2019-04-30T18:19:35.324Z,19.07
2019-04-30T18:21:40.572Z,17.07
2019-04-30T18:24:10.153Z,13.20
2019-04-30T18:26:13.052Z,14.67
2019-04-30T18:28:14.289Z,17.10
2019-04-30T18:30:19.025Z,17.47
2019-04-30T18:32:23.548Z,16.50
2019-04-30T18:34:24.791Z,17.43
2019-04-30T18:36:26.015Z,19.67
2019-04-30T18:38:29.262Z,28.37
2019-04-30T18:40:30.631Z,26.37
2019-04-30T18:42:32.577Z,38.13
2019-04-30T18:44:34.092Z,36.13
2019-04-30T18:46:35.692Z,38.30
2019-04-30T18:48:36.904Z,41.47
2019-04-30T18:50:38.160Z,39.07
2019-04-30T18:52:39.879Z,30.80
2019-04-30T18:54:41.099Z,27.27
2019-04-30T18:56:43.057Z,21.63
2019-04-30T18:58:44.551Z,18.37
2019-04-30T19:00:45.767Z,20.60
2019-04-30T19:02:48.591Z,20.20
2019-04-30T19:04:50.035Z,17.97
2019-04-30T19:06:53.172Z,16.03
2019-04-30T19:09:23.168Z,19.13
2019-04-30T19:11:29.234Z,19.27
2019-04-30T19:13:56.212Z,20.27
2019-04-30T19:16:22.075Z,18.83
2019-04-30T19:18:29.968Z,20.00
2019-04-30T19:20:39.357Z,20.37
2019-04-30T19:22:40.577Z,21.20
2019-04-30T19:24:52.840Z,22.00
2019-04-30T19:26:44.964Z,22.33
2019-04-30T19:28:46.184Z,21.67
2019-04-30T19:30:55.844Z,21.50
2019-04-30T19:32:50.549Z,26.47
2019-04-30T19:34:51.782Z,23.47
2019-04-30T19:36:53.003Z,21.37
2019-04-30T19:38:54.236Z,22.30
2019-04-30T19:40:55.465Z,21.90
2019-04-30T19:42:56.712Z,19.13
2019-04-30T19:45:08.691Z,20.67
2019-04-30T19:47:01.365Z,20.67
2019-04-30T19:49:02.606Z,20.87
2019-04-30T19:51:03.848Z,22.70
2019-04-30T19:53:05.392Z,20.23
2019-04-30T19:55:06.784Z,22.83
2019-04-30T19:57:10.191Z,24.87
2019-04-30T19:59:11.552Z,22.47
2019-04-30T20:01:12.785Z,22.03
2019-04-30T20:03:13.996Z,24.57
2019-04-30T20:05:15.522Z,23.90
2019-04-30T20:07:16.740Z,22.63
